Time;durP1;ratioP1;P1;durP2;ratioP2;P2;SDS_P1;SDS_P2;PMS_P1;PMS_P2;Temp;Humidity;BMP_temperature;BMP_pressure;BME280_temperature;BME280_humidity;BME280_pressure;Samples;Min_cycle;Max_cycle;Signal;HPM_P1;HPM_P2
2022/05/17 00:00:02;;;;;;;;;;;;;;;22.87;69.96;97189.28;610364;232;65363;-75
2022/05/17 00:02:32;;;;;;;;;;;;;;;22.86;69.84;97193.02;609844;232;44269;-75
2022/05/17 00:04:59;;;;;;;;;;;;;;;22.86;69.67;97184.98;608610;233;66854;-75
2022/05/17 00:07:27;;;;;;;;;;;;;;;22.87;70.01;97189.28;608572;233;63019;-75
2022/05/17 00:09:54;;;;;;;;;;;;;;;22.86;70.37;97195.70;608602;233;64889;-75
2022/05/17 00:12:22;;;;;;;;;;;;;;;22.86;70.24;97185.78;608576;233;64850;-75
2022/05/17 00:14:49;;;;;;;;;;;;;;;22.86;70.10;97193.02;608523;233;63046;-75
2022/05/17 00:17:16;;;;;;;;;;;;;;;22.86;70.50;97188.45;608549;233;65711;-75
2022/05/17 00:19:44;;;;;;;;;;;;;;;22.85;70.25;97181.51;608604;233;66899;-75
2022/05/17 00:22:12;;;;;;;;;;;;;;;22.85;70.42;97191.43;608537;233;65272;-75
2022/05/17 00:24:39;;;;;;;;;;;;;;;22.85;70.26;97181.51;608525;233;67080;-75
2022/05/17 00:27:07;;;;;;;;;;;;;;;22.85;69.76;97178.83;608547;233;66534;-75
2022/05/17 00:29:35;;;;;;;;;;;;;;;22.85;70.41;97178.83;608508;233;62594;-75
2022/05/17 00:32:03;;;;;;;;;;;;;;;22.85;70.51;97181.51;608551;233;64851;-75
2022/05/17 00:34:31;;;;;;;;;;;;;;;22.85;70.63;97178.03;608562;233;67218;-75
2022/05/17 00:36:59;;;;;;;;;;;;;;;22.85;70.45;97183.39;608551;233;65743;-75
2022/05/17 00:39:26;;;;;;;;;;;;;;;22.85;70.42;97167.31;608544;233;64211;-75
2022/05/17 00:41:54;;;;;;;;;;;;;;;22.86;69.81;97176.95;608525;233;64756;-75
2022/05/17 00:47:14;;;;;;;;;;;;;;;22.84;69.87;97171.88;608584;233;67143;-76
2022/05/17 00:49:43;;;;;;;;;;;;;;;22.86;70.17;97176.95;608490;233;64896;-76
2022/05/17 00:52:12;;;;;;;;;;;;;;;22.85;70.23;97170.00;608546;233;65139;-75
2022/05/17 00:54:41;;;;;;;;;;;;;;;22.85;69.85;97170.00;608520;233;66762;-75
2022/05/17 00:57:10;;;;;;;;;;;;;;;22.85;70.29;97170.00;608533;233;64770;-75
2022/05/17 00:59:38;;;;;;;;;;;;;;;22.84;70.42;97169.20;608430;233;63936;-75
2022/05/17 01:02:10;;;;;;;;;;;;;;;22.83;69.97;97162.22;608575;232;67364;-75
2022/05/17 01:04:39;;;;;;;;;;;;;;;22.83;70.09;97164.91;608570;233;65077;-75
2022/05/17 01:07:08;;;;;;;;;;;;;;;22.83;70.21;97162.22;608497;233;65553;-75
2022/05/17 01:09:36;;;;;;;;;;;;;;;22.84;70.51;97166.52;608495;233;64925;-75
2022/05/17 01:12:03;;;;;;;;;;;;;;;22.83;70.54;97170.27;608542;233;66915;-75
2022/05/17 01:17:17;;;;;;;;;;;;;;;22.83;69.97;97164.91;608600;233;67010;-76
2022/05/17 01:19:45;;;;;;;;;;;;;;;22.83;70.68;97157.69;608507;233;66907;-74
2022/05/17 01:22:12;;;;;;;;;;;;;;;22.82;70.54;97164.11;608536;233;63275;-74
2022/05/17 01:24:40;;;;;;;;;;;;;;;22.83;70.58;97159.55;608482;233;67068;-74
2022/05/17 01:27:14;;;;;;;;;;;;;;;22.82;70.85;97157.95;608528;233;66951;-74
2022/05/17 01:29:43;;;;;;;;;;;;;;;22.82;71.00;97158.75;608586;233;65382;-75
2022/05/17 01:32:12;;;;;;;;;;;;;;;22.83;70.47;97155.01;608488;233;65071;-74
2022/05/17 01:34:40;;;;;;;;;;;;;;;22.81;70.54;97146.44;608535;233;66946;-74
2022/05/17 01:37:08;;;;;;;;;;;;;;;22.83;70.44;97148.83;608542;233;65478;-73
2022/05/17 01:39:35;;;;;;;;;;;;;;;22.82;70.49;97150.71;608532;233;67039;-72
2022/05/17 01:42:03;;;;;;;;;;;;;;;22.82;69.91;97149.92;608590;233;66758;-72
2022/05/17 01:44:31;;;;;;;;;;;;;;;22.82;70.03;97150.71;608550;230;65135;-72
2022/05/17 01:46:59;;;;;;;;;;;;;;;22.83;69.89;97148.83;608520;233;67063;-73
2022/05/17 01:49:27;;;;;;;;;;;;;;;22.82;70.67;97150.71;608508;233;67864;-73
2022/05/17 01:51:54;;;;;;;;;;;;;;;22.81;70.67;97146.44;608528;233;65527;-72
2022/05/17 01:54:23;;;;;;;;;;;;;;;22.82;70.38;97149.92;608517;233;66986;-73
2022/05/17 01:56:50;;;;;;;;;;;;;;;22.82;70.28;97149.92;608592;233;66922;-72
2022/05/17 01:59:18;;;;;;;;;;;;;;;22.82;70.64;97149.92;608505;233;62996;-72
2022/05/17 02:01:45;;;;;;;;;;;;;;;22.81;70.23;97149.13;608490;233;64913;-72
2022/05/17 02:04:13;;;;;;;;;;;;;;;22.81;69.99;97143.77;610186;232;66974;-72
2022/05/17 02:06:42;;;;;;;;;;;;;;;22.81;70.39;97143.77;610364;232;65302;-72
2022/05/17 02:09:09;;;;;;;;;;;;;;;22.81;69.55;97143.77;610410;232;64685;-72
2022/05/17 02:11:37;;;;;;;;;;;;;;;22.81;70.34;97137.61;610325;232;64477;-72
2022/05/17 02:14:06;;;;;;;;;;;;;;;22.81;70.13;97129.57;610334;232;63088;-73
2022/05/17 02:16:35;;;;;;;;;;;;;;;22.80;70.08;97136.78;610353;232;67532;-72
2022/05/17 02:19:03;;;;;;;;;;;;;;;22.82;69.96;97133.84;610336;232;64889;-74
2022/05/17 02:21:30;;;;;;;;;;;;;;;22.81;69.97;97129.57;610423;232;65136;-74
2022/05/17 02:23:58;;;;;;;;;;;;;;;22.80;70.50;97126.06;610384;232;64845;-74
2022/05/17 02:26:25;;;;;;;;;;;;;;;22.81;70.26;97134.93;610331;232;64755;-74
2022/05/17 02:28:53;;;;;;;;;;;;;;;22.81;70.14;97134.93;610384;232;63054;-74
2022/05/17 02:31:24;;;;;;;;;;;;;;;22.80;70.30;97131.42;610378;232;48717;-75
2022/05/17 02:33:51;;;;;;;;;;;;;;;22.80;69.85;97134.11;610441;232;65090;-74
2022/05/17 02:36:19;;;;;;;;;;;;;;;22.80;69.79;97134.11;610394;232;63105;-74
2022/05/17 02:38:46;;;;;;;;;;;;;;;22.82;70.42;97141.88;610317;232;64849;-74
2022/05/17 02:41:17;;;;;;;;;;;;;;;22.80;70.27;97133.31;610397;232;64792;-75
2022/05/17 02:43:43;;;;;;;;;;;;;;;22.80;70.10;97136.78;610279;231;63017;-74
2022/05/17 02:46:10;;;;;;;;;;;;;;;22.81;70.57;97137.61;610427;232;66893;-75
2022/05/17 02:48:38;;;;;;;;;;;;;;;22.80;70.44;97138.67;610390;232;66779;-75
2022/05/17 02:51:10;;;;;;;;;;;;;;;22.80;70.43;97139.47;610389;232;64085;-74
2022/05/17 02:53:39;;;;;;;;;;;;;;;22.80;70.39;97144.82;610175;232;67188;-74
2022/05/17 02:56:07;;;;;;;;;;;;;;;22.80;69.92;97144.03;610430;232;66710;-74
2022/05/17 02:58:34;;;;;;;;;;;;;;;22.79;70.22;97137.88;610374;232;65390;-74
2022/05/17 03:01:02;;;;;;;;;;;;;;;22.79;69.79;97145.91;610423;232;67108;-75
2022/05/17 03:03:30;;;;;;;;;;;;;;;22.80;70.52;97147.50;610350;232;65152;-75
2022/05/17 03:05:58;;;;;;;;;;;;;;;22.78;70.03;97152.36;610341;232;65311;-74
2022/05/17 03:08:26;;;;;;;;;;;;;;;22.80;70.62;97146.70;610400;232;67050;-74
2022/05/17 03:10:53;;;;;;;;;;;;;;;22.79;70.26;97145.13;610386;232;66887;-74
2022/05/17 03:13:21;;;;;;;;;;;;;;;22.79;70.33;97140.55;610401;231;65447;-74
2022/05/17 03:15:50;;;;;;;;;;;;;;;22.79;70.51;97135.20;610400;232;67033;-74
2022/05/17 03:18:17;;;;;;;;;;;;;;;22.79;70.45;97137.88;610356;232;66872;-74
2022/05/17 03:20:45;;;;;;;;;;;;;;;22.78;69.48;97138.14;610395;232;65228;-74
2022/05/17 03:23:12;;;;;;;;;;;;;;;22.79;70.17;97140.55;610374;232;64542;-74
2022/05/17 03:25:40;;;;;;;;;;;;;;;22.78;70.79;97138.97;610432;232;66693;-74
2022/05/17 03:28:07;;;;;;;;;;;;;;;22.79;70.10;97140.55;610349;232;63017;-74
2022/05/17 03:30:35;;;;;;;;;;;;;;;22.79;70.60;97142.44;610383;232;64998;-75
2022/05/17 03:33:02;;;;;;;;;;;;;;;22.78;70.28;97140.82;610324;232;64853;-74
2022/05/17 03:35:30;;;;;;;;;;;;;;;22.78;70.47;97155.05;610377;232;65115;-74
2022/05/17 03:37:57;;;;;;;;;;;;;;;22.77;70.20;97148.06;610399;232;66995;-74
2022/05/17 03:40:25;;;;;;;;;;;;;;;22.78;70.59;97155.05;610392;232;66972;-74
2022/05/17 03:42:52;;;;;;;;;;;;;;;22.78;70.28;97149.69;610405;232;65436;-74
2022/05/17 03:45:20;;;;;;;;;;;;;;;22.78;70.65;97143.50;610412;232;66755;-75
2022/05/17 03:47:47;;;;;;;;;;;;;;;22.78;70.50;97149.69;610399;232;66678;-75
2022/05/17 03:50:15;;;;;;;;;;;;;;;22.77;69.94;97153.42;610404;232;65424;-74
2022/05/17 03:52:43;;;;;;;;;;;;;;;22.77;70.21;97152.63;610428;232;66761;-74
2022/05/17 03:55:11;;;;;;;;;;;;;;;22.77;70.78;97150.74;610361;232;67658;-74
2022/05/17 03:57:38;;;;;;;;;;;;;;;22.77;70.83;97147.27;610423;232;63035;-74
2022/05/17 04:00:06;;;;;;;;;;;;;;;22.77;70.37;97155.31;610370;232;64517;-74
2022/05/17 04:02:37;;;;;;;;;;;;;;;22.77;70.27;97149.95;609786;232;43415;-74
2022/05/17 04:05:05;;;;;;;;;;;;;;;22.77;70.61;97155.31;608628;233;65378;-74
2022/05/17 04:07:32;;;;;;;;;;;;;;;22.77;70.55;97155.31;608540;233;66742;-74
2022/05/17 04:10:00;;;;;;;;;;;;;;;22.77;69.36;97158.78;608563;233;66535;-74
2022/05/17 04:12:27;;;;;;;;;;;;;;;22.76;70.88;97154.52;608523;233;65158;-74
2022/05/17 04:14:55;;;;;;;;;;;;;;;22.76;71.01;97154.52;608551;233;67146;-74
2022/05/17 04:17:22;;;;;;;;;;;;;;;22.76;70.31;97162.55;608549;233;67233;-74
2022/05/17 04:19:50;;;;;;;;;;;;;;;22.76;70.48;97157.19;608548;233;65367;-74
2022/05/17 04:22:17;;;;;;;;;;;;;;;22.76;70.89;97151.83;608552;233;67041;-74
2022/05/17 04:24:45;;;;;;;;;;;;;;;22.76;70.55;97161.75;608521;233;66911;-74
2022/05/17 04:27:12;;;;;;;;;;;;;;;22.75;70.34;97160.96;608490;233;65372;-74
2022/05/17 04:29:41;;;;;;;;;;;;;;;22.76;70.89;97157.19;608561;233;68062;-74
2022/05/17 04:32:09;;;;;;;;;;;;;;;22.75;71.14;97162.81;608533;233;64827;-74
2022/05/17 04:34:37;;;;;;;;;;;;;;;22.75;70.84;97155.60;608571;233;65140;-74
2022/05/17 04:37:04;;;;;;;;;;;;;;;22.75;71.14;97152.92;608550;233;64572;-74
2022/05/17 04:39:33;;;;;;;;;;;;;;;22.76;71.07;97151.04;608376;233;67311;-74
2022/05/17 04:42:01;;;;;;;;;;;;;;;22.75;70.97;97150.24;608584;233;66308;-74
2022/05/17 04:44:28;;;;;;;;;;;;;;;22.75;71.14;97152.92;608584;233;67443;-74
2022/05/17 04:46:57;;;;;;;;;;;;;;;22.75;70.88;97139.53;608544;233;66896;-74
2022/05/17 04:49:24;;;;;;;;;;;;;;;22.74;70.84;97137.91;608518;233;63005;-74
2022/05/17 04:51:52;;;;;;;;;;;;;;;22.75;71.40;97144.06;608541;233;66708;-74
2022/05/17 04:54:21;;;;;;;;;;;;;;;22.75;70.93;97146.73;608510;233;67389;-74
2022/05/17 04:56:48;;;;;;;;;;;;;;;22.75;71.37;97147.56;608576;233;65448;-74
2022/05/17 04:59:16;;;;;;;;;;;;;;;22.74;71.09;97142.47;608578;233;66801;-74
2022/05/17 05:01:43;;;;;;;;;;;;;;;22.74;71.50;97143.27;608452;233;66859;-75
2022/05/17 05:04:11;;;;;;;;;;;;;;;22.75;70.60;97144.06;608473;232;65144;-75
2022/05/17 05:06:38;;;;;;;;;;;;;;;22.74;70.71;97140.59;608491;233;67046;-75
2022/05/17 05:09:07;;;;;;;;;;;;;;;22.74;71.07;97143.27;608572;233;64265;-75
2022/05/17 05:11:35;;;;;;;;;;;;;;;22.74;71.19;97137.91;608525;233;65398;-75
2022/05/17 05:14:02;;;;;;;;;;;;;;;22.74;70.98;97147.83;608524;233;67059;-75
2022/05/17 05:16:30;;;;;;;;;;;;;;;22.74;70.68;97139.80;608524;233;66900;-75
2022/05/17 05:18:57;;;;;;;;;;;;;;;22.74;71.66;97150.51;608524;233;66280;-75
2022/05/17 05:21:25;;;;;;;;;;;;;;;22.74;71.12;97139.80;608538;233;67167;-75
2022/05/17 05:23:52;;;;;;;;;;;;;;;22.74;71.07;97147.83;608557;233;66650;-74
2022/05/17 05:26:20;;;;;;;;;;;;;;;22.73;71.68;97144.36;608513;233;65347;-75
2022/05/17 05:28:47;;;;;;;;;;;;;;;22.73;71.26;97141.67;608525;233;67031;-75
2022/05/17 05:31:16;;;;;;;;;;;;;;;22.73;71.71;97141.67;608486;233;67198;-75
2022/05/17 05:33:44;;;;;;;;;;;;;;;22.73;71.65;97147.03;608560;233;65207;-75
2022/05/17 05:36:12;;;;;;;;;;;;;;;22.73;71.47;97146.23;608505;233;64834;-75
2022/05/17 05:38:39;;;;;;;;;;;;;;;22.73;71.09;97143.56;608543;233;65106;-76
2022/05/17 05:41:12;;;;;;;;;;;;;;;22.74;70.94;97145.16;608539;233;65943;-75
2022/05/17 05:43:40;;;;;;;;;;;;;;;22.72;71.39;97140.06;608516;233;67031;-75
2022/05/17 05:46:08;;;;;;;;;;;;;;;22.73;71.30;97136.31;608540;233;64857;-75
2022/05/17 05:48:36;;;;;;;;;;;;;;;22.73;71.28;97136.31;608582;233;63380;-75
2022/05/17 05:51:04;;;;;;;;;;;;;;;22.72;71.11;97134.70;608497;233;64813;-75
2022/05/17 05:53:32;;;;;;;;;;;;;;;22.73;71.43;97140.88;608544;233;64766;-75
2022/05/17 05:56:01;;;;;;;;;;;;;;;22.72;71.52;97132.02;608427;233;63024;-75
2022/05/17 05:58:32;;;;;;;;;;;;;;;22.72;71.77;97133.91;607885;233;65119;-75
2022/05/17 06:01:00;;;;;;;;;;;;;;;22.72;71.56;97132.02;608470;233;65692;-76
2022/05/17 06:03:29;;;;;;;;;;;;;;;22.72;71.64;97131.23;611569;230;65550;-77
2022/05/17 06:05:56;;;;;;;;;;;;;;;22.71;72.10;97127.75;615019;230;67171;-75
2022/05/17 06:08:24;;;;;;;;;;;;;;;22.70;72.04;97125.34;610447;232;66914;-74
2022/05/17 06:10:51;;;;;;;;;;;;;;;22.69;71.59;97127.23;610626;232;65083;-76
2022/05/17 06:13:19;;;;;;;;;;;;;;;22.69;71.90;97119.19;610603;232;67026;-78
2022/05/17 06:15:47;;;;;;;;;;;;;;;22.70;71.85;97119.98;610687;232;66991;-77
2022/05/17 06:18:14;;;;;;;;;;;;;;;22.70;71.43;97112.77;610652;232;65403;-78
2022/05/17 06:20:42;;;;;;;;;;;;;;;22.72;71.79;97117.83;610526;232;67044;-77
2022/05/17 06:23:10;;;;;;;;;;;;;;;22.72;71.88;97115.95;610638;232;67465;-78
2022/05/17 06:25:39;;;;;;;;;;;;;;;22.72;72.03;97110.59;610056;232;62780;-77
2022/05/17 06:28:06;;;;;;;;;;;;;;;22.73;71.75;97108.73;608919;232;65810;-77
2022/05/17 06:30:34;;;;;;;;;;;;;;;22.73;71.81;97106.06;609034;233;64745;-76
2022/05/17 06:33:03;;;;;;;;;;;;;;;22.74;71.43;97116.47;609912;232;46641;-74
2022/05/17 06:35:32;;;;;;;;;;;;;;;22.74;71.91;97108.44;610278;232;67623;-76
2022/05/17 06:37:59;;;;;;;;;;;;;;;22.74;71.85;97105.76;610362;232;66762;-75
2022/05/17 06:40:27;;;;;;;;;;;;;;;22.74;72.10;97104.97;610306;232;65361;-76
2022/05/17 06:42:54;;;;;;;;;;;;;;;22.74;72.01;97108.44;610318;232;67077;-78
2022/05/17 06:45:22;;;;;;;;;;;;;;;22.75;71.89;97110.05;610617;232;67122;-79
2022/05/17 06:47:49;;;;;;;;;;;;;;;22.75;71.69;97106.55;610759;232;65367;-76
2022/05/17 06:50:17;;;;;;;;;;;;;;;22.75;71.88;97104.70;610874;232;67125;-75
2022/05/17 06:52:44;;;;;;;;;;;;;;;22.75;72.09;97102.02;610871;232;66899;-76
2022/05/17 06:55:13;;;;;;;;;;;;;;;22.75;72.28;97096.66;610799;232;63089;-76
2022/05/17 06:57:43;;;;;;;;;;;;;;;22.76;71.73;97102.81;610665;232;67974;-77
2022/05/17 07:00:11;;;;;;;;;;;;;;;22.76;72.02;97090.21;610916;232;64789;-78
2022/05/17 07:02:39;;;;;;;;;;;;;;;22.76;72.19;97094.78;610576;232;65332;-78
2022/05/17 07:05:08;;;;;;;;;;;;;;;22.79;71.45;97099.57;610212;232;66763;-76
2022/05/17 07:07:37;;;;;;;;;;;;;;;22.78;72.32;97096.09;608417;233;65099;-77
2022/05/17 07:13:08;;;;;;;;;;;;;;;22.76;71.66;97094.78;608492;233;65153;-77
2022/05/17 07:15:37;;;;;;;;;;;;;;;22.75;71.52;97085.94;609015;233;66899;-77
2022/05/17 07:18:05;;;;;;;;;;;;;;;22.77;71.26;97088.33;608654;232;65559;-76
2022/05/17 07:20:32;;;;;;;;;;;;;;;22.75;71.51;97083.27;609063;233;67161;-77
2022/05/17 07:23:00;;;;;;;;;;;;;;;22.76;71.02;97086.73;609060;233;66907;-73
2022/05/17 07:25:28;;;;;;;;;;;;;;;22.76;71.16;97084.06;609108;233;65436;-77
2022/05/17 07:27:55;;;;;;;;;;;;;;;22.77;70.10;97082.97;609138;233;67034;-77
2022/05/17 07:30:23;;;;;;;;;;;;;;;22.79;69.50;97078.93;609075;233;64833;-79
2022/05/17 07:32:51;;;;;;;;;;;;;;;22.80;69.87;97071.69;609070;233;65093;-77
2022/05/17 07:35:18;;;;;;;;;;;;;;;22.80;70.52;97071.69;609031;233;67069;-80
2022/05/17 07:37:46;;;;;;;;;;;;;;;22.80;67.72;97069.01;609098;233;66841;-83
2022/05/17 07:40:14;;;;;;;;;;;;;;;22.81;67.85;97073.30;609104;233;63063;-75
2022/05/17 07:42:41;;;;;;;;;;;;;;;22.81;69.17;97068.73;609167;233;65825;-72
2022/05/17 07:45:10;;;;;;;;;;;;;;;22.80;67.61;97067.13;609060;233;65052;-75
2022/05/17 07:47:38;;;;;;;;;;;;;;;22.83;67.14;97074.63;609171;233;63514;-76
2022/05/17 07:50:06;;;;;;;;;;;;;;;22.86;66.66;97070.55;609151;233;64910;-78
2022/05/17 07:52:33;;;;;;;;;;;;;;;22.87;67.61;97076.73;609062;232;66303;-78
2022/05/17 07:55:01;;;;;;;;;;;;;;;22.86;67.43;97065.20;608956;232;66623;-80
2022/05/17 07:57:29;;;;;;;;;;;;;;;22.88;68.78;97072.97;609368;232;65438;-81
2022/05/17 07:59:56;;;;;;;;;;;;;;;22.87;69.30;97060.66;609433;232;65033;-80
2022/05/17 08:02:26;;;;;;;;;;;;;;;22.86;70.42;97064.41;610748;229;63044;-81
2022/05/17 08:04:53;;;;;;;;;;;;;;;22.86;70.25;97059.05;611643;230;66773;-81
2022/05/17 08:07:22;;;;;;;;;;;;;;;22.86;70.47;97056.36;616392;230;66656;-76
2022/05/17 08:09:49;;;;;;;;;;;;;;;22.86;70.89;97056.36;616433;230;65101;-77
2022/05/17 08:12:17;;;;;;;;;;;;;;;22.86;70.50;97059.05;616499;230;64361;-81
2022/05/17 08:14:45;;;;;;;;;;;;;;;22.87;70.39;97060.66;616402;230;64876;-82
2022/05/17 08:17:12;;;;;;;;;;;;;;;22.88;70.04;97056.89;616416;230;65445;-78
2022/05/17 08:19:40;;;;;;;;;;;;;;;22.88;70.18;97057.68;616451;230;66840;-80
2022/05/17 08:22:09;;;;;;;;;;;;;;;22.89;70.33;97058.48;615317;230;67155;-82
2022/05/17 08:27:33;;;;;;;;;;;;;;;22.88;69.73;97055.00;612938;230;67367;-80
2022/05/17 08:30:03;;;;;;;;;;;;;;;22.90;70.12;97054.73;613960;230;66968;-80
2022/05/17 08:35:16;;;;;;;;;;;;;;;22.89;69.45;97047.75;616378;230;67153;-84
2022/05/17 08:37:44;;;;;;;;;;;;;;;22.90;69.87;97049.38;614804;230;66873;-84
2022/05/17 08:40:13;;;;;;;;;;;;;;;22.89;70.34;97048.58;614001;230;63916;-86
2022/05/17 08:42:44;;;;;;;;;;;;;;;22.90;70.01;97047.48;613549;230;48483;-86
2022/05/17 08:45:13;;;;;;;;;;;;;;;22.90;69.69;97052.05;613244;230;66984;-80
2022/05/17 08:47:45;;;;;;;;;;;;;;;22.89;69.00;97045.08;613455;230;64409;-84
2022/05/17 08:50:14;;;;;;;;;;;;;;;22.91;68.61;97048.28;611762;230;67631;-83
2022/05/17 08:52:42;;;;;;;;;;;;;;;22.92;68.72;97041.86;611771;232;66706;-81
2022/05/17 08:55:20;;;;;;;;;;;;;;;22.90;68.66;97036.77;611766;232;63016;-80
2022/05/17 08:57:50;;;;;;;;;;;;;;;22.92;68.64;97039.18;607211;232;64707;-80
2022/05/17 09:00:19;;;;;;;;;;;;;;;22.92;69.29;97028.46;611791;232;64668;-78
2022/05/17 09:02:54;;;;;;;;;;;;;;;22.92;68.61;97031.14;611721;232;63011;-86
2022/05/17 09:05:23;;;;;;;;;;;;;;;22.92;68.91;97031.94;611736;227;68170;-81
2022/05/17 09:08:08;;;;;;;;;;;;;;;22.92;69.09;97036.50;611783;232;67561;-79
2022/05/17 09:10:40;;;;;;;;;;;;;;;22.93;68.42;97033.52;611628;232;65494;-84
2022/05/17 09:13:19;;;;;;;;;;;;;;;22.93;67.84;97027.37;611654;232;67613;-82
2022/05/17 09:15:47;;;;;;;;;;;;;;;22.93;67.85;97033.52;611682;232;67189;-78
2022/05/17 09:18:17;;;;;;;;;;;;;;;22.93;67.90;97028.16;611761;232;44118;-79
2022/05/17 09:20:45;;;;;;;;;;;;;;;22.94;67.97;97026.27;611653;232;67070;-80
2022/05/17 09:23:13;;;;;;;;;;;;;;;22.94;67.93;97027.06;611794;232;67197;-78
2022/05/17 09:25:48;;;;;;;;;;;;;;;22.94;67.58;97031.63;611693;232;65363;-76
2022/05/17 09:28:20;;;;;;;;;;;;;;;22.94;65.60;97023.59;611753;232;67241;-81
2022/05/17 09:30:49;;;;;;;;;;;;;;;22.95;66.78;97026.00;611667;229;64361;-82
2022/05/17 09:33:19;;;;;;;;;;;;;;;22.96;66.04;97018.79;611684;232;63030;-80
2022/05/17 09:35:48;;;;;;;;;;;;;;;22.97;66.46;97012.33;611602;232;67761;-75
2022/05/17 09:38:15;;;;;;;;;;;;;;;22.98;66.29;97008.59;611123;232;66864;-76
2022/05/17 09:40:45;;;;;;;;;;;;;;;23.01;65.30;97018.73;611764;232;65877;-82
2022/05/17 09:43:15;;;;;;;;;;;;;;;23.01;66.82;97018.73;611822;232;70659;-76
2022/05/17 09:45:55;;;;;;;;;;;;;;;23.01;65.17;97013.38;611711;232;64587;-80
2022/05/17 09:48:27;;;;;;;;;;;;;;;23.00;66.45;97012.59;611345;232;64126;-78
2022/05/17 09:53:44;;;;;;;;;;;;;;;23.02;67.03;97017.65;611340;232;64867;-73
2022/05/17 09:56:12;;;;;;;;;;;;;;;23.00;67.19;97007.23;611542;232;65593;-73
2022/05/17 09:58:41;;;;;;;;;;;;;;;23.01;66.66;97014.17;611728;232;67040;-78
2022/05/17 10:01:16;;;;;;;;;;;;;;;23.07;65.36;97003.41;611600;232;66892;-75
2022/05/17 10:03:45;;;;;;;;;;;;;;;23.09;65.78;96996.67;611694;229;65766;-77
2022/05/17 10:06:17;;;;;;;;;;;;;;;23.11;66.65;96993.70;611721;229;67221;-80
2022/05/17 10:08:49;;;;;;;;;;;;;;;23.10;67.46;96995.58;611274;232;66869;-75
2022/05/17 10:11:18;;;;;;;;;;;;;;;23.11;67.44;96991.02;611819;230;63131;-73
2022/05/17 10:13:56;;;;;;;;;;;;;;;23.12;66.97;96977.34;611812;232;64820;-73
2022/05/17 10:16:28;;;;;;;;;;;;;;;23.12;67.01;96985.38;611746;232;67002;-73
2022/05/17 10:18:58;;;;;;;;;;;;;;;23.14;67.67;96971.70;611535;232;63179;-73
2022/05/17 10:21:28;;;;;;;;;;;;;;;23.13;67.29;96978.92;611707;232;67606;-73
2022/05/17 10:23:57;;;;;;;;;;;;;;;23.14;67.77;96975.17;611762;232;66680;-73
2022/05/17 10:26:29;;;;;;;;;;;;;;;23.13;67.39;96973.56;611840;232;65458;-72
2022/05/17 10:29:04;;;;;;;;;;;;;;;23.15;67.45;96968.72;611761;230;64812;-74
2022/05/17 10:31:33;;;;;;;;;;;;;;;23.16;67.30;96974.87;611605;232;65173;-74
2022/05/17 10:34:04;;;;;;;;;;;;;;;23.17;67.67;96971.92;611776;231;65291;-74
2022/05/17 10:36:33;;;;;;;;;;;;;;;23.17;66.15;96963.09;611652;227;67914;-73
2022/05/17 10:39:02;;;;;;;;;;;;;;;23.14;65.97;96975.17;611504;230;67121;-75
2022/05/17 10:41:30;;;;;;;;;;;;;;;23.13;66.82;96956.69;611687;232;63815;-75
2022/05/17 10:43:58;;;;;;;;;;;;;;;23.12;66.54;96958.58;611708;232;67075;-74
2022/05/17 10:46:27;;;;;;;;;;;;;;;23.11;66.72;96956.16;611736;232;66894;-74
2022/05/17 10:48:56;;;;;;;;;;;;;;;23.11;66.72;96954.31;611651;230;63044;-72
2022/05/17 10:51:28;;;;;;;;;;;;;;;23.09;66.12;96950.31;611721;230;66711;-75
2022/05/17 10:53:57;;;;;;;;;;;;;;;23.10;66.31;96951.90;610396;232;65645;-75
2022/05/17 10:56:35;;;;;;;;;;;;;;;23.09;65.94;96951.11;611763;232;65007;-76
2022/05/17 10:59:06;;;;;;;;;;;;;;;23.09;66.26;96945.75;611704;232;65036;-76
2022/05/17 11:01:48;;;;;;;;;;;;;;;23.09;66.02;96942.27;611770;232;66968;-74
2022/05/17 11:04:17;;;;;;;;;;;;;;;23.10;65.92;96941.97;616863;229;62960;-76
2022/05/17 11:06:46;;;;;;;;;;;;;;;23.09;66.15;96943.06;616885;230;67552;-78
2022/05/17 11:09:19;;;;;;;;;;;;;;;23.08;65.23;96928.08;613711;229;66887;-73
2022/05/17 11:12:05;;;;;;;;;;;;;;;23.08;67.47;96925.40;610436;232;65009;-74
2022/05/17 11:14:31;;;;;;;;;;;;;;;23.09;68.22;96928.87;611693;232;64903;-73
2022/05/17 11:17:06;;;;;;;;;;;;;;;23.07;66.63;96931.83;611691;232;66832;-73
2022/05/17 11:19:43;;;;;;;;;;;;;;;23.07;66.60;96929.14;611724;231;43328;-72
2022/05/17 11:22:25;;;;;;;;;;;;;;;23.10;66.07;96925.89;611705;231;64809;-73
2022/05/17 11:24:59;;;;;;;;;;;;;;;23.11;65.40;96921.32;603202;232;67353;-73
2022/05/17 11:27:45;;;;;;;;;;;;;;;23.10;66.69;96925.89;611706;232;65523;-72
2022/05/17 11:30:23;;;;;;;;;;;;;;;23.11;65.66;96927.50;611797;232;67052;-73
2022/05/17 11:33:08;;;;;;;;;;;;;;;23.12;65.67;96929.09;611400;232;66932;-72
2022/05/17 11:35:36;;;;;;;;;;;;;;;23.12;65.87;96923.73;611636;232;66292;-75
2022/05/17 11:38:07;;;;;;;;;;;;;;;23.11;65.71;96922.14;611736;232;67099;-74
2022/05/17 11:40:51;;;;;;;;;;;;;;;23.12;65.74;96918.36;611727;232;66937;-72
2022/05/17 11:43:41;;;;;;;;;;;;;;;23.13;65.74;96911.11;611750;232;67229;-74
2022/05/17 11:46:26;;;;;;;;;;;;;;;23.12;67.34;96901.49;611753;232;67017;-73
2022/05/17 11:48:58;;;;;;;;;;;;;;;23.11;65.96;96906.06;611663;232;66107;-72
2022/05/17 11:51:27;;;;;;;;;;;;;;;23.13;65.54;96909.23;611734;232;63120;-73
2022/05/17 11:53:55;;;;;;;;;;;;;;;23.13;65.45;96903.08;611670;230;65735;-75
2022/05/17 11:56:32;;;;;;;;;;;;;;;23.14;67.01;96905.48;611778;232;64818;-75
2022/05/17 11:59:03;;;;;;;;;;;;;;;23.14;66.38;96894.76;611680;232;66192;-75
2022/05/17 12:01:32;;;;;;;;;;;;;;;23.14;66.13;96884.03;610869;232;67363;-76
2022/05/17 12:04:04;;;;;;;;;;;;;;;23.14;67.78;96888.61;614048;230;66503;-75
2022/05/17 12:06:39;;;;;;;;;;;;;;;23.15;67.47;96882.15;613333;230;63044;-76
2022/05/17 12:09:08;;;;;;;;;;;;;;;23.14;67.01;96884.03;611705;232;64259;-74
2022/05/17 12:11:43;;;;;;;;;;;;;;;23.13;66.42;96887.78;611696;232;64797;-76
2022/05/17 12:14:15;;;;;;;;;;;;;;;23.14;66.27;96880.56;611571;232;65195;-74
2022/05/17 12:16:47;;;;;;;;;;;;;;;23.14;66.29;96875.20;611712;232;64371;-74
2022/05/17 12:19:25;;;;;;;;;;;;;;;23.15;66.52;96879.47;611795;232;66837;-74
2022/05/17 12:22:11;;;;;;;;;;;;;;;23.14;66.35;96870.63;611742;230;62962;-73
2022/05/17 12:24:55;;;;;;;;;;;;;;;23.16;66.42;96870.33;611981;232;66742;-73
2022/05/17 12:27:27;;;;;;;;;;;;;;;23.14;66.23;96859.91;611705;232;66672;-80
2022/05/17 12:32:53;;;;;;;;;;;;;;;23.14;66.17;96857.23;611651;232;66874;-78
2022/05/17 12:35:28;;;;;;;;;;;;;;;23.14;66.95;96846.51;611788;232;64828;-74
2022/05/17 12:37:56;;;;;;;;;;;;;;;23.15;66.00;96845.41;611672;232;65353;-75
2022/05/17 12:43:17;;;;;;;;;;;;;;;23.16;66.42;96843.52;611705;232;67840;-71
2022/05/17 12:45:46;;;;;;;;;;;;;;;23.16;66.46;96843.52;611457;232;72438;-76
2022/05/17 12:48:21;;;;;;;;;;;;;;;23.16;65.45;96838.98;611741;232;64871;-73
2022/05/17 12:50:50;;;;;;;;;;;;;;;23.16;65.53;96838.16;611400;232;64718;-73
2022/05/17 12:53:25;;;;;;;;;;;;;;;23.17;66.01;96834.41;611551;232;66140;-77
2022/05/17 12:55:57;;;;;;;;;;;;;;;23.17;64.47;96826.37;611746;232;67012;-74
2022/05/17 12:58:25;;;;;;;;;;;;;;;23.17;65.54;96823.69;611724;232;67571;-71
2022/05/17 13:00:54;;;;;;;;;;;;;;;23.17;65.80;96819.12;611723;232;63012;-73
2022/05/17 13:03:23;;;;;;;;;;;;;;;23.17;65.50;96810.28;611753;232;67068;-72
2022/05/17 13:05:51;;;;;;;;;;;;;;;23.18;66.22;96809.98;611523;231;72596;-77
2022/05/17 13:08:23;;;;;;;;;;;;;;;23.18;65.51;96809.19;611717;232;63183;-73
2022/05/17 13:10:59;;;;;;;;;;;;;;;23.19;65.78;96808.09;611712;232;64840;-72
2022/05/17 13:13:27;;;;;;;;;;;;;;;23.18;65.77;96801.94;611699;230;64777;-73
2022/05/17 13:15:56;;;;;;;;;;;;;;;23.18;65.16;96793.11;611781;232;65150;-72
2022/05/17 13:18:25;;;;;;;;;;;;;;;23.18;65.73;96785.85;611723;232;67374;-72
2022/05/17 13:20:52;;;;;;;;;;;;;;;23.18;65.90;96788.53;611564;232;66721;-73